sensor_id;sensor_type;location;lat;lon;timestamp;P1;durP1;ratioP1;P2;durP2;ratioP2
25657;SDS011;13517;59.320;18.042;2022-12-10T00:01:40;16.42;;;8.85;;
25657;SDS011;13517;59.320;18.042;2022-12-10T00:04:07;27.00;;;10.52;;
25657;SDS011;13517;59.320;18.042;2022-12-10T00:06:33;22.55;;;9.85;;
25657;SDS011;13517;59.320;18.042;2022-12-10T00:09:00;20.08;;;9.88;;
25657;SDS011;13517;59.320;18.042;2022-12-10T00:11:28;22.90;;;10.43;;
25657;SDS011;13517;59.320;18.042;2022-12-10T00:13:54;19.33;;;9.18;;
25657;SDS011;13517;59.320;18.042;2022-12-10T00:16:22;21.23;;;9.93;;
25657;SDS011;13517;59.320;18.042;2022-12-10T00:18:49;19.23;;;9.07;;
25657;SDS011;13517;59.320;18.042;2022-12-10T00:21:17;20.05;;;9.93;;
25657;SDS011;13517;59.320;18.042;2022-12-10T00:23:44;21.35;;;10.05;;
25657;SDS011;13517;59.320;18.042;2022-12-10T00:28:38;18.00;;;8.20;;
25657;SDS011;13517;59.320;18.042;2022-12-10T00:31:05;24.50;;;11.10;;
25657;SDS011;13517;59.320;18.042;2022-12-10T00:33:33;22.27;;;11.25;;
25657;SDS011;13517;59.320;18.042;2022-12-10T00:36:18;23.95;;;10.23;;
25657;SDS011;13517;59.320;18.042;2022-12-10T00:38:45;23.83;;;9.95;;
25657;SDS011;13517;59.320;18.042;2022-12-10T00:41:12;18.63;;;8.50;;
25657;SDS011;13517;59.320;18.042;2022-12-10T00:43:38;15.70;;;7.45;;
25657;SDS011;13517;59.320;18.042;2022-12-10T00:46:04;19.83;;;8.43;;
25657;SDS011;13517;59.320;18.042;2022-12-10T00:48:30;19.40;;;8.77;;
25657;SDS011;13517;59.320;18.042;2022-12-10T00:53:21;14.13;;;6.95;;
25657;SDS011;13517;59.320;18.042;2022-12-10T00:55:47;14.45;;;6.75;;
25657;SDS011;13517;59.320;18.042;2022-12-10T00:58:12;17.33;;;7.20;;
25657;SDS011;13517;59.320;18.042;2022-12-10T01:00:37;18.83;;;8.48;;
25657;SDS011;13517;59.320;18.042;2022-12-10T01:03:03;21.67;;;9.80;;
25657;SDS011;13517;59.320;18.042;2022-12-10T01:05:28;23.90;;;8.23;;
25657;SDS011;13517;59.320;18.042;2022-12-10T01:07:53;22.38;;;9.07;;
25657;SDS011;13517;59.320;18.042;2022-12-10T01:10:19;19.88;;;8.48;;
25657;SDS011;13517;59.320;18.042;2022-12-10T01:12:44;21.60;;;8.70;;
25657;SDS011;13517;59.320;18.042;2022-12-10T01:15:10;19.77;;;8.90;;
25657;SDS011;13517;59.320;18.042;2022-12-10T01:17:36;24.08;;;8.75;;
25657;SDS011;13517;59.320;18.042;2022-12-10T01:20:01;22.45;;;8.60;;
25657;SDS011;13517;59.320;18.042;2022-12-10T01:22:27;20.13;;;8.73;;
25657;SDS011;13517;59.320;18.042;2022-12-10T01:24:53;22.80;;;9.02;;
25657;SDS011;13517;59.320;18.042;2022-12-10T01:27:18;25.52;;;9.98;;
25657;SDS011;13517;59.320;18.042;2022-12-10T01:29:44;21.50;;;9.60;;
25657;SDS011;13517;59.320;18.042;2022-12-10T01:32:09;25.77;;;10.48;;
25657;SDS011;13517;59.320;18.042;2022-12-10T01:34:34;22.95;;;10.70;;
25657;SDS011;13517;59.320;18.042;2022-12-10T01:37:00;23.92;;;9.70;;
25657;SDS011;13517;59.320;18.042;2022-12-10T01:39:25;20.40;;;9.25;;
25657;SDS011;13517;59.320;18.042;2022-12-10T01:41:52;21.23;;;9.27;;
25657;SDS011;13517;59.320;18.042;2022-12-10T01:46:47;24.33;;;8.88;;
25657;SDS011;13517;59.320;18.042;2022-12-10T01:49:15;14.90;;;7.10;;
25657;SDS011;13517;59.320;18.042;2022-12-10T01:51:43;19.67;;;9.15;;
25657;SDS011;13517;59.320;18.042;2022-12-10T01:54:14;21.20;;;8.32;;
25657;SDS011;13517;59.320;18.042;2022-12-10T01:56:45;12.15;;;6.18;;
25657;SDS011;13517;59.320;18.042;2022-12-10T01:59:15;16.67;;;8.48;;
25657;SDS011;13517;59.320;18.042;2022-12-10T02:06:58;18.13;;;8.27;;
25657;SDS011;13517;59.320;18.042;2022-12-10T02:09:32;17.05;;;8.25;;
25657;SDS011;13517;59.320;18.042;2022-12-10T02:15:43;13.10;;;6.82;;
25657;SDS011;13517;59.320;18.042;2022-12-10T02:20:11;11.50;;;6.40;;
25657;SDS011;13517;59.320;18.042;2022-12-10T02:22:44;14.60;;;6.53;;
25657;SDS011;13517;59.320;18.042;2022-12-10T02:25:15;14.57;;;7.35;;
25657;SDS011;13517;59.320;18.042;2022-12-10T02:30:20;13.07;;;7.40;;
25657;SDS011;13517;59.320;18.042;2022-12-10T02:32:46;13.07;;;7.18;;
25657;SDS011;13517;59.320;18.042;2022-12-10T02:35:19;12.63;;;6.07;;
25657;SDS011;13517;59.320;18.042;2022-12-10T02:37:49;11.15;;;6.60;;
25657;SDS011;13517;59.320;18.042;2022-12-10T02:40:22;13.63;;;6.82;;
25657;SDS011;13517;59.320;18.042;2022-12-10T02:42:51;10.90;;;5.35;;
25657;SDS011;13517;59.320;18.042;2022-12-10T02:45:18;9.60;;;5.75;;
25657;SDS011;13517;59.320;18.042;2022-12-10T02:47:46;12.60;;;5.82;;
25657;SDS011;13517;59.320;18.042;2022-12-10T02:50:13;9.65;;;5.75;;
25657;SDS011;13517;59.320;18.042;2022-12-10T02:52:43;11.02;;;5.80;;
25657;SDS011;13517;59.320;18.042;2022-12-10T02:55:11;12.05;;;6.13;;
25657;SDS011;13517;59.320;18.042;2022-12-10T03:00:47;10.50;;;6.25;;
25657;SDS011;13517;59.320;18.042;2022-12-10T03:09:03;15.38;;;7.15;;
25657;SDS011;13517;59.320;18.042;2022-12-10T03:11:31;12.88;;;7.32;;
25657;SDS011;13517;59.320;18.042;2022-12-10T03:16:54;12.45;;;7.68;;
25657;SDS011;13517;59.320;18.042;2022-12-10T03:19:23;14.38;;;7.65;;
25657;SDS011;13517;59.320;18.042;2022-12-10T03:21:54;15.90;;;7.60;;
25657;SDS011;13517;59.320;18.042;2022-12-10T03:24:21;15.98;;;7.60;;
25657;SDS011;13517;59.320;18.042;2022-12-10T03:26:47;14.65;;;7.68;;
25657;SDS011;13517;59.320;18.042;2022-12-10T03:29:20;14.13;;;8.52;;
25657;SDS011;13517;59.320;18.042;2022-12-10T03:31:50;13.00;;;7.60;;
25657;SDS011;13517;59.320;18.042;2022-12-10T03:34:17;18.08;;;7.68;;
25657;SDS011;13517;59.320;18.042;2022-12-10T03:36:43;11.98;;;6.85;;
25657;SDS011;13517;59.320;18.042;2022-12-10T03:39:09;12.32;;;7.22;;
25657;SDS011;13517;59.320;18.042;2022-12-10T03:41:35;12.98;;;7.03;;
25657;SDS011;13517;59.320;18.042;2022-12-10T03:44:01;12.02;;;6.72;;
25657;SDS011;13517;59.320;18.042;2022-12-10T03:46:27;11.13;;;6.50;;
25657;SDS011;13517;59.320;18.042;2022-12-10T03:48:54;10.20;;;6.22;;
25657;SDS011;13517;59.320;18.042;2022-12-10T03:51:21;10.27;;;5.47;;
25657;SDS011;13517;59.320;18.042;2022-12-10T03:53:46;10.52;;;5.72;;
25657;SDS011;13517;59.320;18.042;2022-12-10T03:56:16;7.57;;;4.30;;
25657;SDS011;13517;59.320;18.042;2022-12-10T03:58:44;8.18;;;4.82;;
25657;SDS011;13517;59.320;18.042;2022-12-10T04:01:10;13.40;;;5.40;;
25657;SDS011;13517;59.320;18.042;2022-12-10T04:03:36;6.47;;;3.63;;
25657;SDS011;13517;59.320;18.042;2022-12-10T04:06:04;7.10;;;4.00;;
25657;SDS011;13517;59.320;18.042;2022-12-10T04:08:32;5.93;;;4.18;;
25657;SDS011;13517;59.320;18.042;2022-12-10T04:11:01;7.40;;;4.47;;
25657;SDS011;13517;59.320;18.042;2022-12-10T04:13:32;9.15;;;5.57;;
25657;SDS011;13517;59.320;18.042;2022-12-10T04:16:17;8.85;;;4.65;;
25657;SDS011;13517;59.320;18.042;2022-12-10T04:18:52;7.28;;;4.32;;
25657;SDS011;13517;59.320;18.042;2022-12-10T04:21:22;8.43;;;4.72;;
25657;SDS011;13517;59.320;18.042;2022-12-10T04:24:10;6.28;;;3.92;;
25657;SDS011;13517;59.320;18.042;2022-12-10T04:26:55;7.10;;;4.35;;
25657;SDS011;13517;59.320;18.042;2022-12-10T04:29:26;8.98;;;5.18;;
25657;SDS011;13517;59.320;18.042;2022-12-10T04:31:52;9.07;;;5.18;;
25657;SDS011;13517;59.320;18.042;2022-12-10T04:34:19;5.82;;;3.97;;
25657;SDS011;13517;59.320;18.042;2022-12-10T04:36:45;8.88;;;5.20;;
25657;SDS011;13517;59.320;18.042;2022-12-10T04:39:10;9.32;;;6.03;;
25657;SDS011;13517;59.320;18.042;2022-12-10T04:41:42;8.15;;;5.05;;
25657;SDS011;13517;59.320;18.042;2022-12-10T04:44:08;9.15;;;5.55;;
25657;SDS011;13517;59.320;18.042;2022-12-10T04:46:34;7.72;;;5.00;;
25657;SDS011;13517;59.320;18.042;2022-12-10T04:49:00;7.63;;;4.60;;
25657;SDS011;13517;59.320;18.042;2022-12-10T04:51:26;6.28;;;4.68;;
25657;SDS011;13517;59.320;18.042;2022-12-10T04:53:51;11.30;;;5.70;;
25657;SDS011;13517;59.320;18.042;2022-12-10T04:56:17;10.23;;;6.35;;
25657;SDS011;13517;59.320;18.042;2022-12-10T04:58:42;5.40;;;3.85;;
25657;SDS011;13517;59.320;18.042;2022-12-10T05:01:08;7.80;;;4.55;;
25657;SDS011;13517;59.320;18.042;2022-12-10T05:03:35;6.63;;;4.30;;
25657;SDS011;13517;59.320;18.042;2022-12-10T05:06:05;9.05;;;4.53;;
25657;SDS011;13517;59.320;18.042;2022-12-10T05:08:36;8.88;;;5.32;;
25657;SDS011;13517;59.320;18.042;2022-12-10T05:11:06;8.23;;;4.75;;
25657;SDS011;13517;59.320;18.042;2022-12-10T05:13:35;5.68;;;3.50;;
25657;SDS011;13517;59.320;18.042;2022-12-10T05:16:02;8.60;;;4.25;;
25657;SDS011;13517;59.320;18.042;2022-12-10T05:18:28;8.30;;;4.93;;
25657;SDS011;13517;59.320;18.042;2022-12-10T05:20:54;7.28;;;4.40;;
25657;SDS011;13517;59.320;18.042;2022-12-10T05:23:19;8.60;;;5.13;;
25657;SDS011;13517;59.320;18.042;2022-12-10T05:26:00;6.97;;;4.40;;
25657;SDS011;13517;59.320;18.042;2022-12-10T05:28:32;6.57;;;4.53;;
25657;SDS011;13517;59.320;18.042;2022-12-10T05:31:00;6.28;;;4.30;;
25657;SDS011;13517;59.320;18.042;2022-12-10T05:33:26;6.43;;;4.53;;
25657;SDS011;13517;59.320;18.042;2022-12-10T05:36:02;6.75;;;4.40;;
25657;SDS011;13517;59.320;18.042;2022-12-10T05:38:29;7.25;;;4.55;;
25657;SDS011;13517;59.320;18.042;2022-12-10T05:41:03;7.40;;;4.05;;
25657;SDS011;13517;59.320;18.042;2022-12-10T05:43:29;6.85;;;4.25;;
25657;SDS011;13517;59.320;18.042;2022-12-10T05:45:58;7.38;;;3.72;;
25657;SDS011;13517;59.320;18.042;2022-12-10T05:48:25;5.13;;;3.65;;
25657;SDS011;13517;59.320;18.042;2022-12-10T05:50:50;7.53;;;4.45;;
25657;SDS011;13517;59.320;18.042;2022-12-10T05:53:16;6.63;;;4.45;;
25657;SDS011;13517;59.320;18.042;2022-12-10T05:55:43;7.25;;;4.45;;
25657;SDS011;13517;59.320;18.042;2022-12-10T05:58:08;7.07;;;4.43;;
25657;SDS011;13517;59.320;18.042;2022-12-10T06:00:34;6.47;;;4.10;;
25657;SDS011;13517;59.320;18.042;2022-12-10T06:02:59;6.32;;;4.65;;
25657;SDS011;13517;59.320;18.042;2022-12-10T06:05:25;9.13;;;4.95;;
25657;SDS011;13517;59.320;18.042;2022-12-10T06:07:50;9.00;;;4.72;;
25657;SDS011;13517;59.320;18.042;2022-12-10T06:10:15;8.77;;;5.13;;
25657;SDS011;13517;59.320;18.042;2022-12-10T06:12:41;10.02;;;5.00;;
25657;SDS011;13517;59.320;18.042;2022-12-10T06:15:06;9.80;;;5.20;;
25657;SDS011;13517;59.320;18.042;2022-12-10T06:17:32;9.77;;;5.60;;
25657;SDS011;13517;59.320;18.042;2022-12-10T06:19:58;9.20;;;4.75;;
25657;SDS011;13517;59.320;18.042;2022-12-10T06:22:23;10.57;;;5.70;;
25657;SDS011;13517;59.320;18.042;2022-12-10T06:24:48;10.15;;;5.05;;
25657;SDS011;13517;59.320;18.042;2022-12-10T06:27:14;8.98;;;5.05;;
25657;SDS011;13517;59.320;18.042;2022-12-10T06:29:39;10.20;;;5.75;;
25657;SDS011;13517;59.320;18.042;2022-12-10T06:32:05;6.88;;;4.78;;
25657;SDS011;13517;59.320;18.042;2022-12-10T06:34:30;8.77;;;5.22;;
25657;SDS011;13517;59.320;18.042;2022-12-10T06:36:56;8.40;;;5.10;;
25657;SDS011;13517;59.320;18.042;2022-12-10T06:39:21;10.60;;;5.72;;
25657;SDS011;13517;59.320;18.042;2022-12-10T06:41:47;9.25;;;5.65;;
25657;SDS011;13517;59.320;18.042;2022-12-10T06:44:12;10.98;;;6.05;;
25657;SDS011;13517;59.320;18.042;2022-12-10T06:46:39;10.48;;;4.68;;
25657;SDS011;13517;59.320;18.042;2022-12-10T06:49:06;9.18;;;5.20;;
25657;SDS011;13517;59.320;18.042;2022-12-10T06:51:32;12.27;;;5.55;;
25657;SDS011;13517;59.320;18.042;2022-12-10T06:53:58;8.45;;;4.93;;
25657;SDS011;13517;59.320;18.042;2022-12-10T06:56:23;10.43;;;6.15;;
25657;SDS011;13517;59.320;18.042;2022-12-10T06:58:49;8.93;;;4.78;;
25657;SDS011;13517;59.320;18.042;2022-12-10T07:01:22;9.63;;;5.03;;
25657;SDS011;13517;59.320;18.042;2022-12-10T07:03:52;8.35;;;5.00;;
25657;SDS011;13517;59.320;18.042;2022-12-10T07:06:20;7.60;;;4.70;;
25657;SDS011;13517;59.320;18.042;2022-12-10T07:08:46;7.68;;;4.55;;
25657;SDS011;13517;59.320;18.042;2022-12-10T07:11:13;8.20;;;4.57;;
25657;SDS011;13517;59.320;18.042;2022-12-10T07:13:39;8.57;;;5.30;;
25657;SDS011;13517;59.320;18.042;2022-12-10T07:16:15;11.65;;;5.30;;
25657;SDS011;13517;59.320;18.042;2022-12-10T07:18:44;6.93;;;4.07;;
25657;SDS011;13517;59.320;18.042;2022-12-10T07:21:16;8.95;;;5.32;;
25657;SDS011;13517;59.320;18.042;2022-12-10T07:23:48;10.93;;;5.70;;
25657;SDS011;13517;59.320;18.042;2022-12-10T07:26:14;8.88;;;5.70;;
25657;SDS011;13517;59.320;18.042;2022-12-10T07:28:39;12.07;;;5.85;;
25657;SDS011;13517;59.320;18.042;2022-12-10T07:31:06;10.32;;;5.63;;
25657;SDS011;13517;59.320;18.042;2022-12-10T07:33:33;8.27;;;5.00;;
25657;SDS011;13517;59.320;18.042;2022-12-10T07:35:58;11.40;;;4.90;;
25657;SDS011;13517;59.320;18.042;2022-12-10T07:38:24;9.93;;;5.07;;
25657;SDS011;13517;59.320;18.042;2022-12-10T07:40:50;8.23;;;4.78;;
25657;SDS011;13517;59.320;18.042;2022-12-10T07:43:16;8.38;;;4.10;;
25657;SDS011;13517;59.320;18.042;2022-12-10T07:45:42;9.07;;;5.22;;
25657;SDS011;13517;59.320;18.042;2022-12-10T07:48:08;6.88;;;3.92;;
25657;SDS011;13517;59.320;18.042;2022-12-10T07:50:34;8.57;;;4.35;;
25657;SDS011;13517;59.320;18.042;2022-12-10T07:53:00;6.88;;;4.50;;
25657;SDS011;13517;59.320;18.042;2022-12-10T07:55:25;6.25;;;3.72;;
25657;SDS011;13517;59.320;18.042;2022-12-10T07:57:51;8.13;;;4.63;;
25657;SDS011;13517;59.320;18.042;2022-12-10T08:00:16;8.88;;;4.20;;
25657;SDS011;13517;59.320;18.042;2022-12-10T08:02:42;9.35;;;5.38;;
25657;SDS011;13517;59.320;18.042;2022-12-10T08:05:07;7.93;;;4.93;;
25657;SDS011;13517;59.320;18.042;2022-12-10T08:07:33;8.27;;;4.65;;
25657;SDS011;13517;59.320;18.042;2022-12-10T08:09:59;9.40;;;5.43;;
25657;SDS011;13517;59.320;18.042;2022-12-10T08:12:25;9.93;;;5.90;;
25657;SDS011;13517;59.320;18.042;2022-12-10T08:14:50;12.65;;;6.60;;
25657;SDS011;13517;59.320;18.042;2022-12-10T08:17:15;8.77;;;5.15;;
25657;SDS011;13517;59.320;18.042;2022-12-10T08:19:41;11.25;;;5.13;;
25657;SDS011;13517;59.320;18.042;2022-12-10T08:22:06;8.77;;;5.15;;
25657;SDS011;13517;59.320;18.042;2022-12-10T08:24:32;8.38;;;5.20;;
25657;SDS011;13517;59.320;18.042;2022-12-10T08:26:57;8.60;;;4.95;;
25657;SDS011;13517;59.320;18.042;2022-12-10T08:29:23;9.52;;;5.85;;
25657;SDS011;13517;59.320;18.042;2022-12-10T08:31:48;10.65;;;6.00;;
25657;SDS011;13517;59.320;18.042;2022-12-10T08:34:14;10.98;;;5.45;;
25657;SDS011;13517;59.320;18.042;2022-12-10T08:36:41;11.48;;;5.18;;
25657;SDS011;13517;59.320;18.042;2022-12-10T08:39:08;8.93;;;5.25;;
25657;SDS011;13517;59.320;18.042;2022-12-10T08:41:35;10.35;;;5.50;;
25657;SDS011;13517;59.320;18.042;2022-12-10T08:44:01;7.75;;;5.00;;
25657;SDS011;13517;59.320;18.042;2022-12-10T08:46:27;11.82;;;6.00;;
25657;SDS011;13517;59.320;18.042;2022-12-10T08:48:53;13.35;;;5.95;;
25657;SDS011;13517;59.320;18.042;2022-12-10T08:51:19;9.40;;;5.10;;
25657;SDS011;13517;59.320;18.042;2022-12-10T08:53:45;16.30;;;6.03;;
25657;SDS011;13517;59.320;18.042;2022-12-10T08:56:11;11.98;;;5.35;;
25657;SDS011;13517;59.320;18.042;2022-12-10T08:58:37;8.73;;;5.03;;
25657;SDS011;13517;59.320;18.042;2022-12-10T09:01:14;11.82;;;5.90;;
25657;SDS011;13517;59.320;18.042;2022-12-10T09:03:41;9.02;;;5.20;;
25657;SDS011;13517;59.320;18.042;2022-12-10T09:06:10;11.30;;;5.72;;
25657;SDS011;13517;59.320;18.042;2022-12-10T09:08:38;14.48;;;5.72;;
25657;SDS011;13517;59.320;18.042;2022-12-10T09:11:07;8.93;;;5.88;;
25657;SDS011;13517;59.320;18.042;2022-12-10T09:13:37;8.32;;;5.40;;
25657;SDS011;13517;59.320;18.042;2022-12-10T09:16:04;9.35;;;5.13;;
25657;SDS011;13517;59.320;18.042;2022-12-10T09:18:29;10.52;;;5.15;;
25657;SDS011;13517;59.320;18.042;2022-12-10T09:20:55;10.07;;;5.07;;
25657;SDS011;13517;59.320;18.042;2022-12-10T09:23:20;12.57;;;5.85;;
25657;SDS011;13517;59.320;18.042;2022-12-10T09:25:46;9.30;;;5.38;;
25657;SDS011;13517;59.320;18.042;2022-12-10T09:28:12;11.43;;;6.00;;
25657;SDS011;13517;59.320;18.042;2022-12-10T09:30:37;10.77;;;5.78;;
25657;SDS011;13517;59.320;18.042;2022-12-10T09:33:02;9.82;;;5.72;;
25657;SDS011;13517;59.320;18.042;2022-12-10T09:35:28;11.90;;;5.85;;
25657;SDS011;13517;59.320;18.042;2022-12-10T09:37:53;12.23;;;7.00;;
25657;SDS011;13517;59.320;18.042;2022-12-10T09:40:22;10.50;;;5.93;;
25657;SDS011;13517;59.320;18.042;2022-12-10T09:43:04;8.65;;;5.88;;
25657;SDS011;13517;59.320;18.042;2022-12-10T09:45:51;13.57;;;6.60;;
25657;SDS011;13517;59.320;18.042;2022-12-10T09:51:22;10.63;;;4.95;;
25657;SDS011;13517;59.320;18.042;2022-12-10T09:53:51;12.98;;;7.32;;
25657;SDS011;13517;59.320;18.042;2022-12-10T09:56:24;10.80;;;5.47;;
25657;SDS011;13517;59.320;18.042;2022-12-10T09:58:54;11.55;;;6.22;;
25657;SDS011;13517;59.320;18.042;2022-12-10T10:01:22;12.32;;;5.90;;
25657;SDS011;13517;59.320;18.042;2022-12-10T10:03:52;13.88;;;6.70;;
25657;SDS011;13517;59.320;18.042;2022-12-10T10:06:18;10.38;;;5.80;;
25657;SDS011;13517;59.320;18.042;2022-12-10T10:08:47;9.80;;;5.47;;
25657;SDS011;13517;59.320;18.042;2022-12-10T10:11:26;8.02;;;5.40;;
25657;SDS011;13517;59.320;18.042;2022-12-10T10:16:24;12.00;;;6.10;;
25657;SDS011;13517;59.320;18.042;2022-12-10T10:19:04;13.05;;;6.15;;
25657;SDS011;13517;59.320;18.042;2022-12-10T10:21:41;10.25;;;6.15;;
25657;SDS011;13517;59.320;18.042;2022-12-10T10:24:14;8.10;;;5.22;;
25657;SDS011;13517;59.320;18.042;2022-12-10T10:26:41;10.20;;;5.85;;
25657;SDS011;13517;59.320;18.042;2022-12-10T10:29:08;10.95;;;6.10;;
25657;SDS011;13517;59.320;18.042;2022-12-10T10:31:38;10.85;;;5.60;;
25657;SDS011;13517;59.320;18.042;2022-12-10T10:34:20;10.80;;;5.70;;
25657;SDS011;13517;59.320;18.042;2022-12-10T10:36:47;11.48;;;5.80;;
25657;SDS011;13517;59.320;18.042;2022-12-10T10:39:27;10.23;;;6.43;;
25657;SDS011;13517;59.320;18.042;2022-12-10T10:41:56;10.73;;;5.70;;
25657;SDS011;13517;59.320;18.042;2022-12-10T10:44:24;10.07;;;5.90;;
25657;SDS011;13517;59.320;18.042;2022-12-10T10:46:53;13.15;;;6.68;;
25657;SDS011;13517;59.320;18.042;2022-12-10T10:49:24;12.13;;;6.88;;
25657;SDS011;13517;59.320;18.042;2022-12-10T10:52:05;11.48;;;6.53;;
25657;SDS011;13517;59.320;18.042;2022-12-10T10:54:39;11.43;;;6.00;;
25657;SDS011;13517;59.320;18.042;2022-12-10T10:57:10;10.77;;;6.03;;
25657;SDS011;13517;59.320;18.042;2022-12-10T10:59:40;14.57;;;6.93;;
25657;SDS011;13517;59.320;18.042;2022-12-10T11:02:20;13.60;;;5.57;;
25657;SDS011;13517;59.320;18.042;2022-12-10T11:04:51;11.20;;;6.33;;
25657;SDS011;13517;59.320;18.042;2022-12-10T11:07:26;11.15;;;5.93;;
25657;SDS011;13517;59.320;18.042;2022-12-10T11:09:59;10.02;;;5.57;;
25657;SDS011;13517;59.320;18.042;2022-12-10T11:15:02;9.95;;;5.80;;
25657;SDS011;13517;59.320;18.042;2022-12-10T11:17:48;10.85;;;5.90;;
25657;SDS011;13517;59.320;18.042;2022-12-10T11:20:29;10.35;;;5.75;;
25657;SDS011;13517;59.320;18.042;2022-12-10T11:22:58;11.25;;;5.90;;
25657;SDS011;13517;59.320;18.042;2022-12-10T11:31:11;11.05;;;5.70;;
25657;SDS011;13517;59.320;18.042;2022-12-10T11:39:15;10.25;;;6.05;;
25657;SDS011;13517;59.320;18.042;2022-12-10T11:41:53;10.73;;;5.97;;
25657;SDS011;13517;59.320;18.042;2022-12-10T11:44:40;12.65;;;6.55;;
25657;SDS011;13517;59.320;18.042;2022-12-10T11:55:53;12.65;;;6.97;;
25657;SDS011;13517;59.320;18.042;2022-12-10T12:04:25;8.70;;;5.60;;
25657;SDS011;13517;59.320;18.042;2022-12-10T12:12:28;10.38;;;5.53;;
25657;SDS011;13517;59.320;18.042;2022-12-10T12:14:56;6.93;;;3.83;;
25657;SDS011;13517;59.320;18.042;2022-12-10T12:19:53;9.82;;;5.50;;
25657;SDS011;13517;59.320;18.042;2022-12-10T12:22:29;9.90;;;5.70;;
25657;SDS011;13517;59.320;18.042;2022-12-10T12:25:24;9.10;;;4.82;;
25657;SDS011;13517;59.320;18.042;2022-12-10T12:27:53;11.10;;;5.30;;
25657;SDS011;13517;59.320;18.042;2022-12-10T12:30:41;9.07;;;5.35;;
25657;SDS011;13517;59.320;18.042;2022-12-10T12:33:29;11.57;;;5.63;;
25657;SDS011;13517;59.320;18.042;2022-12-10T12:36:02;8.93;;;4.65;;
25657;SDS011;13517;59.320;18.042;2022-12-10T12:46:55;9.77;;;5.65;;
25657;SDS011;13517;59.320;18.042;2022-12-10T12:49:28;9.95;;;5.72;;
25657;SDS011;13517;59.320;18.042;2022-12-10T12:54:50;10.93;;;5.57;;
25657;SDS011;13517;59.320;18.042;2022-12-10T12:57:22;10.57;;;5.47;;
25657;SDS011;13517;59.320;18.042;2022-12-10T13:00:04;8.93;;;5.35;;
25657;SDS011;13517;59.320;18.042;2022-12-10T13:08:15;8.30;;;5.00;;
25657;SDS011;13517;59.320;18.042;2022-12-10T13:10:56;12.02;;;5.15;;
25657;SDS011;13517;59.320;18.042;2022-12-10T13:13:24;12.37;;;5.30;;
25657;SDS011;13517;59.320;18.042;2022-12-10T13:15:53;12.00;;;5.13;;
25657;SDS011;13517;59.320;18.042;2022-12-10T13:23:30;9.13;;;4.70;;
25657;SDS011;13517;59.320;18.042;2022-12-10T13:25:59;9.18;;;4.95;;
25657;SDS011;13517;59.320;18.042;2022-12-10T13:41:30;10.75;;;5.05;;
25657;SDS011;13517;59.320;18.042;2022-12-10T13:44:27;8.15;;;4.72;;
25657;SDS011;13517;59.320;18.042;2022-12-10T13:49:27;8.40;;;5.10;;
25657;SDS011;13517;59.320;18.042;2022-12-10T13:51:57;8.85;;;5.32;;
25657;SDS011;13517;59.320;18.042;2022-12-10T14:00:55;12.18;;;5.03;;
25657;SDS011;13517;59.320;18.042;2022-12-10T14:06:13;9.63;;;4.60;;
25657;SDS011;13517;59.320;18.042;2022-12-10T14:08:46;7.40;;;4.75;;
25657;SDS011;13517;59.320;18.042;2022-12-10T14:11:36;6.70;;;4.20;;
25657;SDS011;13517;59.320;18.042;2022-12-10T14:14:06;9.38;;;3.80;;
25657;SDS011;13517;59.320;18.042;2022-12-10T14:16:37;8.85;;;4.70;;
25657;SDS011;13517;59.320;18.042;2022-12-10T14:19:06;7.25;;;4.20;;
25657;SDS011;13517;59.320;18.042;2022-12-10T14:21:37;7.60;;;4.38;;
25657;SDS011;13517;59.320;18.042;2022-12-10T14:24:04;9.77;;;4.75;;
25657;SDS011;13517;59.320;18.042;2022-12-10T14:26:35;9.23;;;4.38;;
25657;SDS011;13517;59.320;18.042;2022-12-10T14:31:43;6.55;;;3.92;;
25657;SDS011;13517;59.320;18.042;2022-12-10T14:34:13;7.75;;;4.55;;
25657;SDS011;13517;59.320;18.042;2022-12-10T14:36:45;9.38;;;4.50;;
25657;SDS011;13517;59.320;18.042;2022-12-10T14:39:31;6.38;;;4.13;;
25657;SDS011;13517;59.320;18.042;2022-12-10T14:41:59;9.75;;;4.40;;
25657;SDS011;13517;59.320;18.042;2022-12-10T14:44:27;8.05;;;4.65;;
25657;SDS011;13517;59.320;18.042;2022-12-10T14:47:02;8.55;;;4.38;;
25657;SDS011;13517;59.320;18.042;2022-12-10T14:49:40;5.70;;;3.28;;
25657;SDS011;13517;59.320;18.042;2022-12-10T14:52:11;7.13;;;4.25;;
25657;SDS011;13517;59.320;18.042;2022-12-10T14:54:37;7.55;;;4.53;;
25657;SDS011;13517;59.320;18.042;2022-12-10T14:57:04;8.35;;;4.43;;
25657;SDS011;13517;59.320;18.042;2022-12-10T14:59:41;6.90;;;4.50;;
25657;SDS011;13517;59.320;18.042;2022-12-10T15:02:25;6.45;;;3.67;;
25657;SDS011;13517;59.320;18.042;2022-12-10T15:04:55;10.30;;;4.50;;
25657;SDS011;13517;59.320;18.042;2022-12-10T15:07:25;7.35;;;4.30;;
25657;SDS011;13517;59.320;18.042;2022-12-10T15:09:55;6.93;;;3.47;;
25657;SDS011;13517;59.320;18.042;2022-12-10T15:12:32;5.18;;;3.30;;
25657;SDS011;13517;59.320;18.042;2022-12-10T15:15:01;9.27;;;4.50;;
25657;SDS011;13517;59.320;18.042;2022-12-10T15:17:36;6.90;;;4.30;;
25657;SDS011;13517;59.320;18.042;2022-12-10T15:20:26;7.68;;;4.68;;
25657;SDS011;13517;59.320;18.042;2022-12-10T15:25:46;11.20;;;4.78;;
25657;SDS011;13517;59.320;18.042;2022-12-10T15:28:31;6.93;;;3.60;;
25657;SDS011;13517;59.320;18.042;2022-12-10T15:31:18;6.65;;;3.97;;
25657;SDS011;13517;59.320;18.042;2022-12-10T15:33:57;8.73;;;4.03;;
25657;SDS011;13517;59.320;18.042;2022-12-10T15:38:48;8.80;;;4.30;;
25657;SDS011;13517;59.320;18.042;2022-12-10T15:41:24;7.15;;;3.67;;
25657;SDS011;13517;59.320;18.042;2022-12-10T15:46:56;9.20;;;3.90;;
25657;SDS011;13517;59.320;18.042;2022-12-10T15:49:28;8.38;;;4.65;;
25657;SDS011;13517;59.320;18.042;2022-12-10T15:51:54;9.52;;;4.97;;
25657;SDS011;13517;59.320;18.042;2022-12-10T15:54:21;5.15;;;3.22;;
25657;SDS011;13517;59.320;18.042;2022-12-10T15:56:51;6.85;;;3.92;;
25657;SDS011;13517;59.320;18.042;2022-12-10T15:59:17;17.20;;;7.28;;
25657;SDS011;13517;59.320;18.042;2022-12-10T16:01:42;7.20;;;4.38;;
25657;SDS011;13517;59.320;18.042;2022-12-10T16:04:08;11.93;;;4.95;;
25657;SDS011;13517;59.320;18.042;2022-12-10T16:06:34;5.72;;;3.40;;
25657;SDS011;13517;59.320;18.042;2022-12-10T16:08:59;8.05;;;3.00;;
25657;SDS011;13517;59.320;18.042;2022-12-10T16:11:25;13.50;;;4.47;;
25657;SDS011;13517;59.320;18.042;2022-12-10T16:13:51;24.80;;;8.60;;
25657;SDS011;13517;59.320;18.042;2022-12-10T16:16:19;17.00;;;7.72;;
25657;SDS011;13517;59.320;18.042;2022-12-10T16:18:45;14.00;;;5.05;;
25657;SDS011;13517;59.320;18.042;2022-12-10T16:21:11;6.55;;;3.80;;
25657;SDS011;13517;59.320;18.042;2022-12-10T16:23:36;12.88;;;5.55;;
25657;SDS011;13517;59.320;18.042;2022-12-10T16:26:08;9.65;;;4.78;;
25657;SDS011;13517;59.320;18.042;2022-12-10T16:28:41;9.90;;;4.72;;
25657;SDS011;13517;59.320;18.042;2022-12-10T16:31:08;7.03;;;3.83;;
25657;SDS011;13517;59.320;18.042;2022-12-10T16:33:36;7.00;;;4.35;;
25657;SDS011;13517;59.320;18.042;2022-12-10T16:36:01;6.57;;;3.47;;
25657;SDS011;13517;59.320;18.042;2022-12-10T16:38:27;8.75;;;4.60;;
25657;SDS011;13517;59.320;18.042;2022-12-10T16:40:53;8.43;;;3.65;;
25657;SDS011;13517;59.320;18.042;2022-12-10T16:43:19;5.60;;;3.53;;
25657;SDS011;13517;59.320;18.042;2022-12-10T16:45:46;8.93;;;4.15;;
25657;SDS011;13517;59.320;18.042;2022-12-10T16:48:12;12.68;;;5.00;;
25657;SDS011;13517;59.320;18.042;2022-12-10T16:50:38;7.10;;;3.90;;
25657;SDS011;13517;59.320;18.042;2022-12-10T16:55:42;8.80;;;4.50;;